Airfield :
LOGIN :

Register | Disclaimer

   EN    FR    IT 

 










Legend :    VFR   Marginal VFR   IFR   Intensive IFR   Very Intensive IFR
Visi :
Ceiling :
>= 8 km
>= 3000ft
5 to 8 km
1000 to 3000 ft
1500m to 5 km
500 to 1000 ft
800 to 1500m
200 to 500 ft
< 800m
< 200 ft
Symbols :   Thunderstorms  Fog  Heavy snow  Heavy precipitations  Wind > 20 kt
SIGMETs :     Misc.  Thunderstorms  Icing  Turbulence  Mountain Waves  Volcanic Ashes






- Airport Elevation : 327 ft
- IATA code : BHX


EGBB - Birmingham

CURRENT METAR :
  • 280520Z AUTO VRB03KT 9999 NCD 11/09 Q1036

EXPIRED METARs :
  • 280450Z AUTO VRB02KT 9999 NCD 11/09 Q1036
  • 280420Z AUTO VRB02KT 9999 NCD 10/09 Q1036
  • 280350Z AUTO 08003KT 9999 NCD 10/09 Q1036
  • 280320Z AUTO 06003KT 9999 NCD 11/09 Q1036
  • 280250Z AUTO 08004KT 9999 NCD 11/09 Q1036

TAF TAF EGBB
Valid from the 28 at 06:00 until the 29 at 06:00 UTC


280457Z 2806/2906 09004KT 9999 FEW040
ATIS : +44 121 780 0910



MET'MAP, your aeronautical weather chart ! - Copyright ORBIFLY December 2007 - Disclaimer

ORBIFLY MET'MAP TEAM :

Programming & Development : Alexandra Zaïnal
Concept & original design : Baudouin d'Aumeries
Assistance for programming : Marc-Olivier Méhu
Technical & hardware support : Manuel Goepfert

Contact : metmap@orbifly.com




SOURCES & CREDITS :

   NOAA